sensor_id;sensor_type;location;lat;lon;timestamp;pressure;altitude;pressure_sealevel;temperature;humidity
83836;BME280;73859;40.830;43.828;2023-11-18T14:51:16;83936.59;;;9.65;49.77
83836;BME280;73859;40.830;43.828;2023-11-18T14:53:44;83942.09;;;9.62;49.64
83836;BME280;73859;40.830;43.828;2023-11-18T14:56:11;83873.13;;;9.08;49.73
83836;BME280;73859;40.830;43.828;2023-11-18T14:58:39;83906.91;;;9.30;49.18
83836;BME280;73859;40.830;43.828;2023-11-18T15:01:07;83882.72;;;9.20;49.47
83836;BME280;73859;40.830;43.828;2023-11-18T15:03:36;83939.78;;;9.51;49.40
83836;BME280;73859;40.830;43.828;2023-11-18T15:06:04;83863.38;;;8.93;49.63
83836;BME280;73859;40.830;43.828;2023-11-18T15:08:33;83945.44;;;9.49;49.72
83836;BME280;73859;40.830;43.828;2023-11-18T15:11:02;83947.00;;;9.52;49.93
83836;BME280;73859;40.830;43.828;2023-11-18T15:13:29;83942.41;;;9.38;49.88
83836;BME280;73859;40.830;43.828;2023-11-18T15:15:57;83931.94;;;9.22;49.54
83836;BME280;73859;40.830;43.828;2023-11-18T15:18:25;83934.44;;;9.15;49.43
83836;BME280;73859;40.830;43.828;2023-11-18T15:20:52;83928.06;;;8.95;49.55
83836;BME280;73859;40.830;43.828;2023-11-18T15:23:20;83902.72;;;8.73;49.99
83836;BME280;73859;40.830;43.828;2023-11-18T15:25:49;83947.22;;;9.00;50.09
83836;BME280;73859;40.830;43.828;2023-11-18T15:28:19;83938.00;;;8.91;50.42
83836;BME280;73859;40.830;43.828;2023-11-18T15:30:47;83943.34;;;8.93;50.53
83836;BME280;73859;40.830;43.828;2023-11-18T15:33:15;83870.38;;;8.38;50.47
83836;BME280;73859;40.830;43.828;2023-11-18T15:35:43;83935.41;;;8.91;50.55
83836;BME280;73859;40.830;43.828;2023-11-18T15:38:13;83925.50;;;8.82;50.60
83836;BME280;73859;40.830;43.828;2023-11-18T15:40:48;83886.91;;;8.43;50.47
83836;BME280;73859;40.830;43.828;2023-11-18T15:43:17;83946.91;;;8.90;50.53
83836;BME280;73859;40.830;43.828;2023-11-18T15:45:44;83948.50;;;8.93;50.81
83836;BME280;73859;40.830;43.828;2023-11-18T15:48:11;83908.09;;;8.62;50.49
83836;BME280;73859;40.830;43.828;2023-11-18T15:50:39;83938.41;;;8.82;50.49
83836;BME280;73859;40.830;43.828;2023-11-18T15:53:07;83948.72;;;8.82;50.82
83836;BME280;73859;40.830;43.828;2023-11-18T15:55:34;83944.88;;;8.75;51.06
83836;BME280;73859;40.830;43.828;2023-11-18T15:58:04;83939.63;;;8.68;51.19
83836;BME280;73859;40.830;43.828;2023-11-18T16:00:32;83920.78;;;8.60;50.97
83836;BME280;73859;40.830;43.828;2023-11-18T16:02:59;83803.38;;;7.78;51.01
83836;BME280;73859;40.830;43.828;2023-11-18T16:05:29;83921.38;;;8.66;51.34
83836;BME280;73859;40.830;43.828;2023-11-18T16:08:03;83934.66;;;8.70;51.04
83836;BME280;73859;40.830;43.828;2023-11-18T16:10:31;83927.72;;;8.65;50.85
83836;BME280;73859;40.830;43.828;2023-11-18T16:13:00;83941.31;;;8.65;51.11
83836;BME280;73859;40.830;43.828;2023-11-18T16:15:30;83922.19;;;8.61;51.01
83836;BME280;73859;40.830;43.828;2023-11-18T16:17:59;83913.47;;;8.51;51.22
83836;BME280;73859;40.830;43.828;2023-11-18T16:20:29;83913.78;;;8.47;51.29
83836;BME280;73859;40.830;43.828;2023-11-18T16:23:01;83915.97;;;8.43;51.08
83836;BME280;73859;40.830;43.828;2023-11-18T16:25:32;83910.31;;;8.45;50.89
83836;BME280;73859;40.830;43.828;2023-11-18T16:28:03;83897.63;;;8.47;51.11
83836;BME280;73859;40.830;43.828;2023-11-18T16:30:31;83899.41;;;8.38;51.12
83836;BME280;73859;40.830;43.828;2023-11-18T16:33:00;83903.28;;;8.32;51.14
83836;BME280;73859;40.830;43.828;2023-11-18T16:35:29;83911.41;;;8.36;51.32
83836;BME280;73859;40.830;43.828;2023-11-18T16:37:57;83892.06;;;8.16;51.49
83836;BME280;73859;40.830;43.828;2023-11-18T16:40:28;83904.34;;;8.23;51.73
83836;BME280;73859;40.830;43.828;2023-11-18T16:42:56;83905.75;;;8.11;52.00
83836;BME280;73859;40.830;43.828;2023-11-18T16:45:26;83899.03;;;7.95;52.15
83836;BME280;73859;40.830;43.828;2023-11-18T16:47:54;83906.34;;;7.91;52.67
83836;BME280;73859;40.830;43.828;2023-11-18T16:50:22;83903.66;;;7.83;53.14
83836;BME280;73859;40.830;43.828;2023-11-18T16:52:50;83908.72;;;7.76;52.76
83836;BME280;73859;40.830;43.828;2023-11-18T16:55:18;83896.81;;;7.73;52.98
83836;BME280;73859;40.830;43.828;2023-11-18T16:57:49;83897.81;;;7.70;53.00
83836;BME280;73859;40.830;43.828;2023-11-18T17:00:21;83880.38;;;7.50;53.12
83836;BME280;73859;40.830;43.828;2023-11-18T17:02:54;83888.88;;;7.58;53.37
83836;BME280;73859;40.830;43.828;2023-11-18T17:05:28;83892.44;;;7.55;53.48
83836;BME280;73859;40.830;43.828;2023-11-18T17:07:58;83892.66;;;7.57;53.80
83836;BME280;73859;40.830;43.828;2023-11-18T17:10:27;83897.72;;;7.62;54.22
83836;BME280;73859;40.830;43.828;2023-11-18T17:12:55;83837.19;;;7.29;53.99
83836;BME280;73859;40.830;43.828;2023-11-18T17:15:25;83877.91;;;7.70;53.87
83836;BME280;73859;40.830;43.828;2023-11-18T17:17:52;83884.66;;;7.73;54.02
83836;BME280;73859;40.830;43.828;2023-11-18T17:20:27;83806.03;;;7.20;53.74
83836;BME280;73859;40.830;43.828;2023-11-18T17:22:54;83886.75;;;7.88;54.18
83836;BME280;73859;40.830;43.828;2023-11-18T17:25:21;83883.47;;;7.87;53.85
83836;BME280;73859;40.830;43.828;2023-11-18T17:27:50;83818.53;;;7.42;53.84
83836;BME280;73859;40.830;43.828;2023-11-18T17:30:20;83876.25;;;7.86;53.65
83836;BME280;73859;40.830;43.828;2023-11-18T17:32:48;83885.63;;;7.83;53.64
83836;BME280;73859;40.830;43.828;2023-11-18T17:35:20;83786.75;;;7.26;53.64
83836;BME280;73859;40.830;43.828;2023-11-18T17:37:49;83875.75;;;8.01;53.59
83836;BME280;73859;40.830;43.828;2023-11-18T17:40:16;83828.69;;;7.87;53.18
83836;BME280;73859;40.830;43.828;2023-11-18T17:42:45;83871.06;;;8.25;53.23
83836;BME280;73859;40.830;43.828;2023-11-18T17:45:14;83874.47;;;8.33;53.07
83836;BME280;73859;40.830;43.828;2023-11-18T17:47:41;83746.56;;;7.50;52.82
83836;BME280;73859;40.830;43.828;2023-11-18T17:50:12;83851.06;;;8.45;52.51
83836;BME280;73859;40.830;43.828;2023-11-18T17:52:43;83870.84;;;8.50;52.60
83836;BME280;73859;40.830;43.828;2023-11-18T17:55:14;83848.25;;;8.43;52.78
83836;BME280;73859;40.830;43.828;2023-11-18T17:57:45;83860.34;;;8.48;52.89
83836;BME280;73859;40.830;43.828;2023-11-18T18:00:14;83866.16;;;8.61;52.77
83836;BME280;73859;40.830;43.828;2023-11-18T18:02:51;83864.03;;;8.52;53.39
83836;BME280;73859;40.830;43.828;2023-11-18T18:05:20;83869.22;;;8.60;53.48
83836;BME280;73859;40.830;43.828;2023-11-18T18:07:47;83745.66;;;7.73;53.47
83836;BME280;73859;40.830;43.828;2023-11-18T18:10:15;83788.06;;;8.06;53.53
83836;BME280;73859;40.830;43.828;2023-11-18T18:12:44;83843.75;;;8.56;53.70
83836;BME280;73859;40.830;43.828;2023-11-18T18:15:14;83853.16;;;8.67;53.32
83836;BME280;73859;40.830;43.828;2023-11-18T18:17:41;83857.19;;;8.75;53.21
83836;BME280;73859;40.830;43.828;2023-11-18T18:20:10;83858.03;;;8.91;52.77
83836;BME280;73859;40.830;43.828;2023-11-18T18:22:40;83847.28;;;9.00;52.51
83836;BME280;73859;40.830;43.828;2023-11-18T18:25:08;83824.25;;;9.02;52.41
83836;BME280;73859;40.830;43.828;2023-11-18T18:27:36;83822.69;;;8.99;52.41
83836;BME280;73859;40.830;43.828;2023-11-18T18:30:06;83814.88;;;8.92;52.27
83836;BME280;73859;40.830;43.828;2023-11-18T18:32:34;83821.97;;;8.78;52.40
83836;BME280;73859;40.830;43.828;2023-11-18T18:35:01;83832.22;;;8.70;52.09
83836;BME280;73859;40.830;43.828;2023-11-18T18:37:30;83792.69;;;8.34;51.77
83836;BME280;73859;40.830;43.828;2023-11-18T18:39:57;83753.06;;;7.90;52.04
83836;BME280;73859;40.830;43.828;2023-11-18T18:42:25;83847.84;;;8.52;52.39
83836;BME280;73859;40.830;43.828;2023-11-18T18:44:53;83820.91;;;8.40;52.13
83836;BME280;73859;40.830;43.828;2023-11-18T18:47:21;83840.91;;;8.47;51.94
83836;BME280;73859;40.830;43.828;2023-11-18T18:49:53;83833.75;;;8.53;51.78
83836;BME280;73859;40.830;43.828;2023-11-18T18:52:20;83836.72;;;8.57;52.17
83836;BME280;73859;40.830;43.828;2023-11-18T18:54:48;83837.09;;;8.61;51.91
83836;BME280;73859;40.830;43.828;2023-11-18T18:57:16;83833.72;;;8.66;52.01
83836;BME280;73859;40.830;43.828;2023-11-18T18:59:43;83818.25;;;8.66;52.05
83836;BME280;73859;40.830;43.828;2023-11-18T19:02:10;83819.03;;;8.74;51.90
83836;BME280;73859;40.830;43.828;2023-11-18T19:04:38;83821.16;;;8.83;51.86
83836;BME280;73859;40.830;43.828;2023-11-18T19:07:06;83808.28;;;8.83;51.75
83836;BME280;73859;40.830;43.828;2023-11-18T19:09:34;83801.72;;;8.82;51.73
83836;BME280;73859;40.830;43.828;2023-11-18T19:12:02;83815.75;;;8.94;51.68
83836;BME280;73859;40.830;43.828;2023-11-18T19:14:30;83793.75;;;8.93;51.37
83836;BME280;73859;40.830;43.828;2023-11-18T19:16:58;83807.59;;;9.03;51.18
83836;BME280;73859;40.830;43.828;2023-11-18T19:19:28;83815.91;;;9.09;50.91
83836;BME280;73859;40.830;43.828;2023-11-18T19:21:55;83806.00;;;9.00;50.92
83836;BME280;73859;40.830;43.828;2023-11-18T19:24:25;83808.59;;;9.00;50.95
83836;BME280;73859;40.830;43.828;2023-11-18T19:26:53;83813.94;;;9.02;50.76
83836;BME280;73859;40.830;43.828;2023-11-18T19:29:21;83818.91;;;9.00;51.04
83836;BME280;73859;40.830;43.828;2023-11-18T19:31:48;83756.00;;;8.62;51.07
83836;BME280;73859;40.830;43.828;2023-11-18T19:34:16;83808.84;;;8.89;51.20
83836;BME280;73859;40.830;43.828;2023-11-18T19:36:43;83710.78;;;8.19;51.61
83836;BME280;73859;40.830;43.828;2023-11-18T19:39:13;83805.81;;;8.77;51.72
83836;BME280;73859;40.830;43.828;2023-11-18T19:41:40;83759.06;;;8.40;52.12
83836;BME280;73859;40.830;43.828;2023-11-18T19:44:09;83802.03;;;8.58;52.99
83836;BME280;73859;40.830;43.828;2023-11-18T19:46:36;83800.47;;;8.42;52.95
83836;BME280;73859;40.830;43.828;2023-11-18T19:49:03;83790.16;;;8.42;53.39
83836;BME280;73859;40.830;43.828;2023-11-18T19:51:31;83809.91;;;8.39;53.71
83836;BME280;73859;40.830;43.828;2023-11-18T19:53:58;83680.28;;;7.43;54.10
83836;BME280;73859;40.830;43.828;2023-11-18T19:56:26;83793.22;;;8.19;54.88
83836;BME280;73859;40.830;43.828;2023-11-18T19:58:53;83782.63;;;8.10;55.63
83836;BME280;73859;40.830;43.828;2023-11-18T20:01:20;83775.72;;;8.05;55.78
83836;BME280;73859;40.830;43.828;2023-11-18T20:03:48;83762.16;;;7.91;55.92
83836;BME280;73859;40.830;43.828;2023-11-18T20:06:15;83767.59;;;7.87;56.57
83836;BME280;73859;40.830;43.828;2023-11-18T20:08:42;83763.84;;;7.88;56.95
83836;BME280;73859;40.830;43.828;2023-11-18T20:11:10;83767.50;;;7.80;57.34
83836;BME280;73859;40.830;43.828;2023-11-18T20:13:37;83770.59;;;7.78;58.92
83836;BME280;73859;40.830;43.828;2023-11-18T20:16:05;83779.63;;;7.72;57.45
83836;BME280;73859;40.830;43.828;2023-11-18T20:18:35;83780.00;;;7.76;57.59
83836;BME280;73859;40.830;43.828;2023-11-18T20:21:02;83717.69;;;7.30;57.83
83836;BME280;73859;40.830;43.828;2023-11-18T20:23:30;83773.06;;;7.58;60.30
83836;BME280;73859;40.830;43.828;2023-11-18T20:25:57;83785.75;;;7.56;59.84
83836;BME280;73859;40.830;43.828;2023-11-18T20:28:24;83775.06;;;7.52;59.46
83836;BME280;73859;40.830;43.828;2023-11-18T20:30:53;83772.72;;;7.54;60.85
83836;BME280;73859;40.830;43.828;2023-11-18T20:33:23;83762.13;;;7.57;58.90
83836;BME280;73859;40.830;43.828;2023-11-18T20:35:50;83758.03;;;7.62;58.75
83836;BME280;73859;40.830;43.828;2023-11-18T20:38:17;83758.63;;;7.68;58.83
83836;BME280;73859;40.830;43.828;2023-11-18T20:40:45;83754.75;;;7.74;58.93
83836;BME280;73859;40.830;43.828;2023-11-18T20:43:13;83765.53;;;7.86;59.11
83836;BME280;73859;40.830;43.828;2023-11-18T20:45:41;83748.50;;;7.83;59.64
83836;BME280;73859;40.830;43.828;2023-11-18T20:48:08;83743.38;;;7.83;58.69
83836;BME280;73859;40.830;43.828;2023-11-18T20:50:36;83740.97;;;7.85;59.44
83836;BME280;73859;40.830;43.828;2023-11-18T20:53:03;83740.34;;;7.92;59.36
83836;BME280;73859;40.830;43.828;2023-11-18T20:55:31;83745.03;;;7.94;59.03
83836;BME280;73859;40.830;43.828;2023-11-18T20:57:59;83739.56;;;7.97;58.87
83836;BME280;73859;40.830;43.828;2023-11-18T21:00:29;83726.88;;;7.99;58.93
83836;BME280;73859;40.830;43.828;2023-11-18T21:02:57;83722.09;;;8.03;58.99
83836;BME280;73859;40.830;43.828;2023-11-18T21:05:25;83711.19;;;8.10;58.51
83836;BME280;73859;40.830;43.828;2023-11-18T21:07:53;83716.91;;;8.16;58.89
83836;BME280;73859;40.830;43.828;2023-11-18T21:10:20;83709.94;;;8.24;58.30
83836;BME280;73859;40.830;43.828;2023-11-18T21:12:48;83703.78;;;8.27;58.18
83836;BME280;73859;40.830;43.828;2023-11-18T21:15:17;83697.38;;;8.21;58.50
83836;BME280;73859;40.830;43.828;2023-11-18T21:17:46;83698.44;;;8.25;57.97
83836;BME280;73859;40.830;43.828;2023-11-18T21:20:18;83695.28;;;8.32;57.75
83836;BME280;73859;40.830;43.828;2023-11-18T21:22:48;83689.94;;;8.30;57.85
83836;BME280;73859;40.830;43.828;2023-11-18T21:25:16;83681.81;;;8.26;57.55
83836;BME280;73859;40.830;43.828;2023-11-18T21:27:43;83675.25;;;8.25;57.70
83836;BME280;73859;40.830;43.828;2023-11-18T21:30:14;83663.19;;;8.20;58.80
83836;BME280;73859;40.830;43.828;2023-11-18T21:32:41;83656.72;;;8.27;57.96
83836;BME280;73859;40.830;43.828;2023-11-18T21:35:11;83656.25;;;8.28;57.85
83836;BME280;73859;40.830;43.828;2023-11-18T21:37:48;83669.88;;;8.36;57.78
83836;BME280;73859;40.830;43.828;2023-11-18T21:40:17;83665.13;;;8.41;57.49
83836;BME280;73859;40.830;43.828;2023-11-18T21:42:46;83584.63;;;7.85;57.71
83836;BME280;73859;40.830;43.828;2023-11-18T21:45:14;83537.16;;;7.53;57.37
83836;BME280;73859;40.830;43.828;2023-11-18T21:47:41;83661.69;;;8.46;56.97
83836;BME280;73859;40.830;43.828;2023-11-18T21:50:12;83603.72;;;8.11;57.35
83836;BME280;73859;40.830;43.828;2023-11-18T21:52:42;83654.88;;;8.48;58.07
83836;BME280;73859;40.830;43.828;2023-11-18T21:55:13;83635.25;;;8.45;57.88
83836;BME280;73859;40.830;43.828;2023-11-18T21:57:41;83624.25;;;8.45;58.15
83836;BME280;73859;40.830;43.828;2023-11-18T22:00:10;83622.19;;;8.43;58.62
83836;BME280;73859;40.830;43.828;2023-11-18T22:02:45;83638.44;;;8.59;58.45
83836;BME280;73859;40.830;43.828;2023-11-18T22:05:13;83593.41;;;8.31;58.56
83836;BME280;73859;40.830;43.828;2023-11-18T22:07:41;83629.06;;;8.69;58.58
83836;BME280;73859;40.830;43.828;2023-11-18T22:10:13;83636.47;;;8.72;58.81
83836;BME280;73859;40.830;43.828;2023-11-18T22:12:45;83643.50;;;8.72;58.77
83836;BME280;73859;40.830;43.828;2023-11-18T22:15:12;83640.88;;;8.64;59.09
83836;BME280;73859;40.830;43.828;2023-11-18T22:17:49;83625.59;;;8.66;59.28
83836;BME280;73859;40.830;43.828;2023-11-18T22:20:19;83624.91;;;8.66;59.43
83836;BME280;73859;40.830;43.828;2023-11-18T22:22:52;83625.59;;;8.66;59.73
83836;BME280;73859;40.830;43.828;2023-11-18T22:25:19;83623.53;;;8.65;60.00
83836;BME280;73859;40.830;43.828;2023-11-18T22:27:47;83619.38;;;8.62;60.18
83836;BME280;73859;40.830;43.828;2023-11-18T22:30:15;83618.56;;;8.67;60.12
83836;BME280;73859;40.830;43.828;2023-11-18T22:32:43;83621.31;;;8.69;60.14
83836;BME280;73859;40.830;43.828;2023-11-18T22:35:11;83624.25;;;8.73;60.21
83836;BME280;73859;40.830;43.828;2023-11-18T22:37:38;83624.44;;;8.75;60.09
83836;BME280;73859;40.830;43.828;2023-11-18T22:40:06;83608.06;;;8.65;59.93
83836;BME280;73859;40.830;43.828;2023-11-18T22:42:37;83614.13;;;8.75;59.45
83836;BME280;73859;40.830;43.828;2023-11-18T22:45:06;83539.22;;;8.24;58.85
83836;BME280;73859;40.830;43.828;2023-11-18T22:47:44;83616.59;;;8.80;58.73
83836;BME280;73859;40.830;43.828;2023-11-18T22:50:12;83602.25;;;8.72;58.50
83836;BME280;73859;40.830;43.828;2023-11-18T22:52:40;83618.97;;;8.78;58.39
83836;BME280;73859;40.830;43.828;2023-11-18T22:55:08;83592.91;;;8.61;58.13
83836;BME280;73859;40.830;43.828;2023-11-18T22:57:39;83603.81;;;8.75;58.21
83836;BME280;73859;40.830;43.828;2023-11-18T23:00:06;83498.00;;;7.96;58.42
83836;BME280;73859;40.830;43.828;2023-11-18T23:02:41;83600.69;;;8.69;58.15
83836;BME280;73859;40.830;43.828;2023-11-18T23:05:09;83606.22;;;8.73;57.88
83836;BME280;73859;40.830;43.828;2023-11-18T23:07:40;83598.25;;;8.63;57.92
83836;BME280;73859;40.830;43.828;2023-11-18T23:10:11;83609.81;;;8.70;57.90
83836;BME280;73859;40.830;43.828;2023-11-18T23:12:41;83611.81;;;8.64;58.33
83836;BME280;73859;40.830;43.828;2023-11-18T23:15:08;83611.81;;;8.64;58.08
83836;BME280;73859;40.830;43.828;2023-11-18T23:17:36;83606.13;;;8.58;58.25
83836;BME280;73859;40.830;43.828;2023-11-18T23:20:04;83603.22;;;8.61;58.18
83836;BME280;73859;40.830;43.828;2023-11-18T23:22:35;83603.41;;;8.63;58.14
83836;BME280;73859;40.830;43.828;2023-11-18T23:25:03;83593.78;;;8.64;58.17
83836;BME280;73859;40.830;43.828;2023-11-18T23:27:30;83594.66;;;8.66;57.82
83836;BME280;73859;40.830;43.828;2023-11-18T23:30:00;83591.41;;;8.66;57.86
83836;BME280;73859;40.830;43.828;2023-11-18T23:32:28;83586.00;;;8.56;57.80
83836;BME280;73859;40.830;43.828;2023-11-18T23:34:57;83509.88;;;7.99;57.78
83836;BME280;73859;40.830;43.828;2023-11-18T23:37:25;83597.25;;;8.66;57.95
83836;BME280;73859;40.830;43.828;2023-11-18T23:39:52;83575.50;;;8.54;58.01
83836;BME280;73859;40.830;43.828;2023-11-18T23:42:21;83590.00;;;8.65;58.20
83836;BME280;73859;40.830;43.828;2023-11-18T23:44:48;83587.06;;;8.61;58.29
83836;BME280;73859;40.830;43.828;2023-11-18T23:47:16;83585.81;;;8.54;58.78
83836;BME280;73859;40.830;43.828;2023-11-18T23:49:43;83578.59;;;8.53;58.71
83836;BME280;73859;40.830;43.828;2023-11-18T23:52:10;83574.06;;;8.46;58.87
83836;BME280;73859;40.830;43.828;2023-11-18T23:54:38;83567.56;;;8.45;59.01
83836;BME280;73859;40.830;43.828;2023-11-18T23:57:06;83562.22;;;8.43;59.15
83836;BME280;73859;40.830;43.828;2023-11-18T23:59:33;83496.81;;;7.97;58.98
